createdAt,value
2023-01-07T00:01:24.128Z,100104.13
2023-01-07T00:03:51.855Z,100104.78
2023-01-07T00:06:29.597Z,100111.69
2023-01-07T00:08:57.860Z,100109.06
2023-01-07T00:11:34.587Z,100118.78
2023-01-07T00:14:01.702Z,100120.09
2023-01-07T00:16:30.308Z,100129.75
2023-01-07T00:18:58.790Z,100130.75
2023-01-07T00:21:26.509Z,100129.44
2023-01-07T00:23:57.698Z,100132.81
2023-01-07T00:26:26.501Z,100133.97
2023-01-07T00:28:53.954Z,100140.09
2023-01-07T00:31:22.887Z,100144.38
2023-01-07T00:33:59.125Z,100145.81
2023-01-07T00:36:30.802Z,100151.72
2023-01-07T00:38:59.201Z,100153.44
2023-01-07T00:41:26.305Z,100153.44
2023-01-07T00:43:52.911Z,100153.59
2023-01-07T00:46:20.941Z,100144.63
2023-01-07T00:48:47.715Z,100143.28
2023-01-07T00:51:16.413Z,100141.31
2023-01-07T00:53:43.441Z,100133.78
2023-01-07T00:56:11.133Z,100146.88
2023-01-07T00:58:37.968Z,100145.59
2023-01-07T01:01:04.719Z,100162.97
2023-01-07T01:03:32.455Z,100162.22
2023-01-07T01:06:07.302Z,100177.94
2023-01-07T01:08:34.158Z,100177.63
2023-01-07T01:11:05.273Z,100176.78
2023-01-07T01:13:32.121Z,100176.59
2023-01-07T01:15:58.928Z,100176.22
2023-01-07T01:18:25.898Z,100175.53
2023-01-07T01:20:52.447Z,100172.31
2023-01-07T01:23:19.323Z,100173.06
2023-01-07T01:25:45.868Z,100165.47
2023-01-07T01:28:12.447Z,100168.81
2023-01-07T01:30:39.031Z,100162.00
2023-01-07T01:33:05.667Z,100171.56
2023-01-07T01:35:32.136Z,100169.28
2023-01-07T01:38:00.599Z,100171.69
2023-01-07T01:40:30.255Z,100166.81
2023-01-07T01:42:56.905Z,100179.28
2023-01-07T01:45:24.354Z,100182.25
2023-01-07T01:47:55.051Z,100179.03
2023-01-07T01:50:31.992Z,100184.28
2023-01-07T01:53:07.037Z,100188.16
2023-01-07T01:55:47.460Z,100191.53
2023-01-07T01:58:18.113Z,100187.81
2023-01-07T02:00:44.682Z,100193.13
2023-01-07T02:03:13.801Z,100193.16
2023-01-07T02:05:41.076Z,100189.97
2023-01-07T02:08:08.438Z,100188.28
2023-01-07T02:10:35.363Z,100191.94
2023-01-07T02:13:39.104Z,100182.47
2023-01-07T02:16:38.099Z,100183.13
2023-01-07T02:19:22.597Z,100174.94
2023-01-07T02:22:07.854Z,100177.63
2023-01-07T02:24:36.949Z,100181.16
2023-01-07T02:27:11.320Z,100178.13
2023-01-07T02:30:11.564Z,100176.16
2023-01-07T02:33:04.180Z,100166.97
2023-01-07T02:35:36.507Z,100171.19
2023-01-07T02:38:27.610Z,100172.03
2023-01-07T02:41:29.045Z,100170.91
2023-01-07T02:44:35.891Z,100173.44
2023-01-07T02:47:11.567Z,100175.72
2023-01-07T02:49:38.234Z,100178.91
2023-01-07T02:52:17.690Z,100174.78
2023-01-07T02:54:44.814Z,100178.06
2023-01-07T02:57:48.140Z,100180.56
2023-01-07T03:00:17.342Z,100182.91
2023-01-07T03:03:07.488Z,100172.72
2023-01-07T03:06:02.172Z,100175.81
2023-01-07T03:09:04.806Z,100175.25
2023-01-07T03:11:41.571Z,100177.88
2023-01-07T03:14:20.835Z,100182.91
2023-01-07T03:17:00.751Z,100176.16
2023-01-07T03:19:32.809Z,100178.97
2023-01-07T03:22:00.205Z,100179.47
2023-01-07T03:24:28.119Z,100186.31
2023-01-07T03:26:56.604Z,100183.59
2023-01-07T03:29:23.465Z,100182.72
2023-01-07T03:32:00.903Z,100185.94
2023-01-07T03:34:28.785Z,100184.09
2023-01-07T03:36:58.819Z,100189.97
2023-01-07T03:39:27.353Z,100188.75
2023-01-07T03:42:13.649Z,100189.03
2023-01-07T03:44:40.442Z,100189.31
2023-01-07T03:47:07.492Z,100185.56
2023-01-07T03:49:35.231Z,100181.63
2023-01-07T03:52:01.875Z,100196.06
2023-01-07T03:54:28.475Z,100182.03
2023-01-07T03:56:55.020Z,100187.34
2023-01-07T03:59:21.547Z,100181.56
2023-01-07T04:01:48.269Z,100187.00
2023-01-07T04:04:14.841Z,100194.75
2023-01-07T04:06:41.383Z,100186.31
2023-01-07T04:09:07.971Z,100183.41
2023-01-07T04:11:34.572Z,100189.13
2023-01-07T04:14:01.194Z,100191.38
2023-01-07T04:16:27.860Z,100187.81
2023-01-07T04:18:54.582Z,100186.16
2023-01-07T04:21:21.236Z,100196.38
2023-01-07T04:23:47.738Z,100188.97
2023-01-07T04:26:14.192Z,100182.97
2023-01-07T04:28:40.714Z,100180.44
2023-01-07T04:31:07.563Z,100182.97
2023-01-07T04:33:34.173Z,100185.94
2023-01-07T04:36:00.824Z,100187.44
2023-01-07T04:38:27.298Z,100190.72
2023-01-07T04:40:53.779Z,100190.91
2023-01-07T04:43:20.367Z,100182.56
2023-01-07T04:45:46.868Z,100190.34
2023-01-07T04:48:13.394Z,100186.59
2023-01-07T04:50:40.074Z,100190.78
2023-01-07T04:53:06.643Z,100188.34
2023-01-07T04:55:33.144Z,100184.25
2023-01-07T04:57:59.701Z,100188.13
2023-01-07T05:00:26.311Z,100194.34
2023-01-07T05:02:52.765Z,100204.25
2023-01-07T05:05:22.659Z,100204.75
2023-01-07T05:07:49.133Z,100216.94
2023-01-07T05:10:15.751Z,100209.19
2023-01-07T05:12:42.231Z,100203.75
2023-01-07T05:15:09.071Z,100221.06
2023-01-07T05:17:35.611Z,100216.09
2023-01-07T05:20:02.422Z,100218.94
2023-01-07T05:22:28.904Z,100225.69
2023-01-07T05:24:55.450Z,100220.44
2023-01-07T05:27:22.369Z,100229.06
2023-01-07T05:29:48.847Z,100233.34
2023-01-07T05:32:15.342Z,100236.66
2023-01-07T05:34:42.070Z,100234.19
2023-01-07T05:37:08.817Z,100235.78
2023-01-07T05:39:35.356Z,100237.06
2023-01-07T05:42:02.101Z,100237.06
2023-01-07T05:44:28.678Z,100241.41
2023-01-07T05:46:55.325Z,100243.19
2023-01-07T05:49:21.936Z,100241.22
2023-01-07T05:51:48.405Z,100247.00
2023-01-07T05:54:14.924Z,100248.03
2023-01-07T05:56:41.447Z,100244.84
2023-01-07T05:59:07.993Z,100247.47
2023-01-07T06:01:34.514Z,100239.50
2023-01-07T06:04:01.014Z,100246.25
2023-01-07T06:06:27.517Z,100239.50
2023-01-07T06:08:53.980Z,100243.63
2023-01-07T06:11:20.655Z,100244.28
2023-01-07T06:13:47.095Z,100247.97
2023-01-07T06:16:14.381Z,100251.00
2023-01-07T06:18:41.019Z,100253.91
2023-01-07T06:21:07.592Z,100255.56
2023-01-07T06:23:34.121Z,100261.97
2023-01-07T06:26:00.947Z,100258.13
2023-01-07T06:28:27.485Z,100267.59
2023-01-07T06:30:54.056Z,100267.78
2023-01-07T06:33:21.197Z,100272.84
2023-01-07T06:35:47.806Z,100277.50
2023-01-07T06:38:14.344Z,100281.91
2023-01-07T06:40:40.886Z,100277.13
2023-01-07T06:43:07.360Z,100285.53
2023-01-07T06:45:33.926Z,100286.63
2023-01-07T06:48:00.666Z,100284.53
2023-01-07T06:50:27.312Z,100283.25
2023-01-07T06:52:53.871Z,100289.25
2023-01-07T06:55:20.404Z,100294.88
2023-01-07T06:57:47.060Z,100302.00
2023-01-07T07:00:13.983Z,100304.72
2023-01-07T07:02:40.796Z,100306.81
2023-01-07T07:05:07.630Z,100315.91
2023-01-07T07:07:34.165Z,100312.16
2023-01-07T07:10:04.694Z,100314.78
2023-01-07T07:12:31.424Z,100321.53
2023-01-07T07:14:57.857Z,100321.00
2023-01-07T07:17:24.342Z,100323.25
2023-01-07T07:19:50.895Z,100324.06
2023-01-07T07:22:17.399Z,100326.28
2023-01-07T07:24:43.872Z,100328.09
2023-01-07T07:27:10.427Z,100322.81
2023-01-07T07:29:36.937Z,100332.13
2023-01-07T07:32:03.728Z,100323.81
2023-01-07T07:34:30.313Z,100328.16
2023-01-07T07:36:56.982Z,100328.78
2023-01-07T07:39:23.639Z,100329.44
2023-01-07T07:41:50.332Z,100327.75
2023-01-07T07:44:16.819Z,100333.66
2023-01-07T07:46:43.594Z,100334.28
2023-01-07T07:49:11.623Z,100340.19
2023-01-07T07:51:38.435Z,100339.53
2023-01-07T07:54:05.178Z,100334.94
2023-01-07T07:56:31.806Z,100328.63
2023-01-07T07:58:58.338Z,100336.88
2023-01-07T08:01:25.277Z,100330.38
2023-01-07T08:03:52.039Z,100333.53
2023-01-07T08:06:20.451Z,100346.81
2023-01-07T08:08:47.215Z,100354.81
2023-01-07T08:11:13.898Z,100347.03
2023-01-07T08:13:40.433Z,100354.56
2023-01-07T08:16:07.298Z,100356.06
2023-01-07T08:18:34.262Z,100354.25
2023-01-07T08:21:00.864Z,100347.22
2023-01-07T08:23:28.668Z,100349.66
2023-01-07T08:25:59.476Z,100339.84
2023-01-07T08:28:26.072Z,100343.56
2023-01-07T08:30:52.628Z,100345.38
2023-01-07T08:33:19.788Z,100346.13
2023-01-07T08:35:46.313Z,100345.16
2023-01-07T08:38:12.907Z,100344.31
2023-01-07T08:40:39.755Z,100346.34
2023-01-07T08:43:08.032Z,100351.69
2023-01-07T08:45:34.796Z,100354.88
2023-01-07T08:48:01.476Z,100356.88
2023-01-07T08:50:29.934Z,100362.66
2023-01-07T08:52:56.527Z,100362.66
2023-01-07T08:55:23.513Z,100362.66
2023-01-07T08:57:50.289Z,100360.16
2023-01-07T09:00:18.963Z,100351.50
2023-01-07T09:02:47.188Z,100349.38
2023-01-07T09:05:14.028Z,100354.44
2023-01-07T09:07:40.706Z,100359.72
2023-01-07T09:10:09.696Z,100350.88
2023-01-07T09:12:36.404Z,100365.41
2023-01-07T09:15:03.796Z,100361.31
2023-01-07T09:17:30.637Z,100357.72
2023-01-07T09:19:57.198Z,100365.50
2023-01-07T09:22:23.877Z,100362.66
2023-01-07T09:24:50.566Z,100358.78
2023-01-07T09:27:17.203Z,100358.69
2023-01-07T09:29:43.923Z,100365.44
2023-01-07T09:32:10.622Z,100361.84
2023-01-07T09:34:38.401Z,100364.97
2023-01-07T09:37:06.077Z,100360.97
2023-01-07T09:39:32.698Z,100363.09
2023-01-07T09:42:27.218Z,100355.94
2023-01-07T09:45:10.307Z,100359.19
2023-01-07T09:47:38.477Z,100372.25
2023-01-07T09:50:20.345Z,100365.81
2023-01-07T09:52:50.869Z,100368.66
2023-01-07T09:55:24.439Z,100369.19
2023-01-07T09:57:51.018Z,100364.00
2023-01-07T10:00:21.854Z,100368.97
2023-01-07T10:02:54.498Z,100357.91
2023-01-07T10:05:29.237Z,100359.94
2023-01-07T10:08:29.387Z,100358.44
2023-01-07T10:11:17.833Z,100362.78
2023-01-07T10:13:54.444Z,100362.47
2023-01-07T10:16:36.906Z,100357.00
2023-01-07T10:19:48.728Z,100355.94
2023-01-07T10:22:34.160Z,100353.81
2023-01-07T10:25:04.796Z,100346.88
2023-01-07T10:27:35.480Z,100342.22
2023-01-07T10:30:07.439Z,100338.16
2023-01-07T10:32:36.713Z,100340.38
2023-01-07T10:35:04.754Z,100342.47
2023-01-07T10:37:41.647Z,100344.72
2023-01-07T10:40:12.029Z,100340.53
2023-01-07T10:42:57.582Z,100340.19
2023-01-07T10:45:33.710Z,100341.00
2023-01-07T10:48:21.947Z,100334.28
2023-01-07T10:51:06.842Z,100335.75
2023-01-07T10:53:51.834Z,100330.69
2023-01-07T10:56:32.507Z,100323.00
2023-01-07T10:59:04.087Z,100332.09
2023-01-07T11:01:36.066Z,100323.09
2023-01-07T11:04:03.645Z,100325.53
2023-01-07T11:06:37.035Z,100329.66
2023-01-07T11:09:06.298Z,100333.03
2023-01-07T11:11:33.695Z,100322.50
2023-01-07T11:14:03.709Z,100321.25
2023-01-07T11:16:36.200Z,100320.66
2023-01-07T11:19:11.124Z,100324.34
2023-01-07T11:21:45.886Z,100326.88
2023-01-07T11:24:24.448Z,100320.88
2023-01-07T11:26:51.132Z,100309.31
2023-01-07T11:29:24.930Z,100314.75
2023-01-07T11:31:59.472Z,100307.56
2023-01-07T11:34:37.582Z,100312.38
2023-01-07T11:37:04.700Z,100307.25
2023-01-07T11:39:33.787Z,100313.66
2023-01-07T11:42:36.993Z,100312.78
2023-01-07T11:45:15.217Z,100310.19
2023-01-07T11:47:47.605Z,100295.72
2023-01-07T11:50:26.663Z,100301.06
2023-01-07T11:53:16.457Z,100300.84
2023-01-07T11:56:00.005Z,100295.44
2023-01-07T11:58:31.102Z,100286.94
2023-01-07T12:01:04.048Z,100283.88
2023-01-07T12:03:31.170Z,100290.03
2023-01-07T12:05:59.206Z,100282.47
2023-01-07T12:08:27.329Z,100285.59
2023-01-07T12:10:55.916Z,100271.63
2023-01-07T12:13:26.133Z,100276.63
2023-01-07T12:15:55.454Z,100268.47
2023-01-07T12:18:33.916Z,100262.66
2023-01-07T12:21:15.505Z,100265.91
2023-01-07T12:24:08.213Z,100266.03
2023-01-07T12:26:51.738Z,100266.00
2023-01-07T12:29:36.277Z,100259.97
2023-01-07T12:32:26.818Z,100266.84
2023-01-07T12:34:58.965Z,100269.53
2023-01-07T12:37:56.863Z,100263.75
2023-01-07T12:40:32.086Z,100264.19
2023-01-07T12:43:20.741Z,100264.06
2023-01-07T12:46:00.566Z,100259.28
2023-01-07T12:48:36.608Z,100266.75
2023-01-07T12:51:11.171Z,100261.09
2023-01-07T12:53:51.787Z,100262.53
2023-01-07T12:56:23.774Z,100252.44
2023-01-07T12:58:57.804Z,100247.16
2023-01-07T13:01:35.978Z,100252.06
2023-01-07T13:04:13.432Z,100249.81
2023-01-07T13:06:45.104Z,100252.69
2023-01-07T13:09:27.376Z,100250.75
2023-01-07T13:12:43.460Z,100257.81
2023-01-07T13:15:12.467Z,100253.94
2023-01-07T13:17:40.776Z,100249.44
2023-01-07T13:20:12.597Z,100257.00
2023-01-07T13:22:51.685Z,100254.63
2023-01-07T13:25:36.996Z,100262.41
2023-01-07T13:28:47.301Z,100257.53
2023-01-07T13:31:22.807Z,100254.81
2023-01-07T13:33:56.305Z,100259.03
2023-01-07T13:36:36.653Z,100268.41
2023-01-07T13:39:21.355Z,100261.56
2023-01-07T13:41:59.989Z,100260.28
2023-01-07T13:44:49.346Z,100259.78
2023-01-07T13:47:20.824Z,100261.91
2023-01-07T13:49:58.730Z,100263.69
2023-01-07T13:52:28.770Z,100266.81
2023-01-07T13:55:00.365Z,100264.97
2023-01-07T13:57:40.473Z,100268.19
2023-01-07T14:00:43.417Z,100280.91
2023-01-07T14:03:28.235Z,100270.66
2023-01-07T14:06:22.218Z,100277.44
2023-01-07T14:08:52.622Z,100279.13
2023-01-07T14:11:21.398Z,100284.00
2023-01-07T14:13:58.613Z,100279.06
2023-01-07T14:16:29.562Z,100287.69
2023-01-07T14:19:03.596Z,100286.66
2023-01-07T14:21:40.394Z,100286.88
2023-01-07T14:24:25.945Z,100296.03
2023-01-07T14:27:28.189Z,100294.91
2023-01-07T14:29:59.428Z,100295.22
2023-01-07T14:32:34.782Z,100292.00
2023-01-07T14:35:28.941Z,100289.06
2023-01-07T14:37:55.682Z,100292.84
2023-01-07T14:40:34.404Z,100296.41
2023-01-07T14:43:03.209Z,100290.31
2023-01-07T14:45:41.802Z,100301.41
2023-01-07T14:48:08.358Z,100295.06
2023-01-07T14:50:35.057Z,100304.28
2023-01-07T14:53:10.403Z,100299.56
2023-01-07T14:56:12.080Z,100298.91
2023-01-07T14:58:38.545Z,100305.47
2023-01-07T15:01:28.792Z,100305.25
2023-01-07T15:04:23.978Z,100303.44
2023-01-07T15:06:50.966Z,100307.88
2023-01-07T15:09:39.701Z,100307.22
2023-01-07T15:12:29.530Z,100306.06
2023-01-07T15:15:34.862Z,100306.50
2023-01-07T15:18:01.628Z,100304.81
2023-01-07T15:21:00.130Z,100310.94
2023-01-07T15:23:32.217Z,100320.72
2023-01-07T15:26:01.616Z,100313.88
2023-01-07T15:28:46.237Z,100302.22
2023-01-07T15:31:19.990Z,100311.06
2023-01-07T15:34:11.213Z,100311.06
2023-01-07T15:36:43.765Z,100309.91
2023-01-07T15:39:27.994Z,100316.66
2023-01-07T15:41:55.573Z,100317.59
2023-01-07T15:44:42.394Z,100313.56
2023-01-07T15:47:27.621Z,100312.72
2023-01-07T15:49:54.130Z,100308.06
2023-01-07T15:52:24.879Z,100311.91
2023-01-07T15:54:51.457Z,100306.59
2023-01-07T15:57:29.118Z,100307.00
2023-01-07T15:59:56.048Z,100308.81
2023-01-07T16:02:29.812Z,100313.78
2023-01-07T16:05:01.222Z,100301.69
2023-01-07T16:07:44.006Z,100308.75
2023-01-07T16:10:40.468Z,100312.81
2023-01-07T16:13:19.953Z,100312.00
2023-01-07T16:15:46.630Z,100311.44
2023-01-07T16:18:14.798Z,100313.56
2023-01-07T16:20:43.691Z,100315.47
2023-01-07T16:23:10.340Z,100307.56
2023-01-07T16:25:50.885Z,100311.91
2023-01-07T16:28:27.042Z,100296.19
2023-01-07T16:30:55.036Z,100287.81
2023-01-07T16:33:23.324Z,100282.06
2023-01-07T16:35:51.345Z,100278.66
2023-01-07T16:38:19.330Z,100271.81
2023-01-07T16:40:47.824Z,100264.34
2023-01-07T16:43:29.723Z,100262.34
2023-01-07T16:46:25.110Z,100263.28
2023-01-07T16:49:20.444Z,100256.84
2023-01-07T16:51:51.837Z,100257.69
2023-01-07T16:54:23.472Z,100264.03
2023-01-07T16:56:54.511Z,100259.13
2023-01-07T16:59:22.907Z,100247.22
2023-01-07T17:01:49.604Z,100248.19
2023-01-07T17:04:19.890Z,100256.50
2023-01-07T17:06:46.614Z,100259.34
2023-01-07T17:09:36.646Z,100251.25
2023-01-07T17:12:03.741Z,100253.56
2023-01-07T17:14:33.281Z,100250.84
2023-01-07T17:17:19.602Z,100252.50
2023-01-07T17:19:50.608Z,100254.53
2023-01-07T17:22:38.205Z,100253.06
2023-01-07T17:25:16.351Z,100251.78
2023-01-07T17:27:45.450Z,100245.78
2023-01-07T17:30:17.821Z,100246.84
2023-01-07T17:32:45.049Z,100244.19
2023-01-07T17:35:22.439Z,100251.03
2023-01-07T17:37:51.532Z,100244.94
2023-01-07T17:40:18.644Z,100251.66
2023-01-07T17:43:05.021Z,100246.69
2023-01-07T17:45:31.978Z,100258.72
2023-01-07T17:47:59.873Z,100251.75
2023-01-07T17:50:30.647Z,100244.34
2023-01-07T17:52:57.172Z,100239.31
2023-01-07T17:55:26.708Z,100251.09
2023-01-07T17:57:53.457Z,100242.84
2023-01-07T18:00:22.866Z,100242.53
2023-01-07T18:02:49.768Z,100245.41
2023-01-07T18:05:21.909Z,100242.03
2023-01-07T18:07:49.351Z,100244.22
2023-01-07T18:10:18.374Z,100236.84
2023-01-07T18:12:45.240Z,100235.13
2023-01-07T18:15:24.169Z,100232.47
2023-01-07T18:17:51.294Z,100232.25
2023-01-07T18:20:19.660Z,100228.47
2023-01-07T18:22:46.700Z,100235.63
2023-01-07T18:25:21.243Z,100236.00
2023-01-07T18:27:49.248Z,100239.81
2023-01-07T18:30:18.951Z,100236.59
2023-01-07T18:32:46.057Z,100237.25
2023-01-07T18:35:12.747Z,100238.16
2023-01-07T18:37:39.318Z,100228.03
2023-01-07T18:40:07.492Z,100238.47
2023-01-07T18:42:34.787Z,100234.97
2023-01-07T18:45:01.696Z,100236.09
2023-01-07T18:47:28.424Z,100233.97
2023-01-07T18:49:54.870Z,100235.78
2023-01-07T18:52:21.514Z,100229.03
2023-01-07T18:54:48.335Z,100239.06
2023-01-07T18:57:14.800Z,100236.94
2023-01-07T18:59:41.590Z,100239.06
2023-01-07T19:02:14.849Z,100223.25
2023-01-07T19:04:41.527Z,100225.34
2023-01-07T19:07:08.524Z,100220.78
2023-01-07T19:09:35.239Z,100216.94
2023-01-07T19:12:01.738Z,100215.03
2023-01-07T19:14:28.354Z,100214.69
2023-01-07T19:16:56.794Z,100214.69
2023-01-07T19:19:23.525Z,100212.16
2023-01-07T19:21:50.201Z,100224.97
2023-01-07T19:24:16.860Z,100231.66
2023-01-07T19:26:43.849Z,100223.25
2023-01-07T19:29:11.751Z,100222.88
2023-01-07T19:31:39.963Z,100220.38
2023-01-07T19:34:06.574Z,100219.16
2023-01-07T19:36:33.055Z,100220.38
2023-01-07T19:38:59.675Z,100218.66
2023-01-07T19:41:26.573Z,100210.31
2023-01-07T19:43:57.826Z,100207.19
2023-01-07T19:46:25.598Z,100208.84
2023-01-07T19:48:52.227Z,100210.41
2023-01-07T19:51:19.093Z,100211.94
2023-01-07T19:53:47.968Z,100214.56
2023-01-07T19:56:14.571Z,100202.28
2023-01-07T19:58:41.871Z,100204.09
2023-01-07T20:01:12.136Z,100201.22
2023-01-07T20:03:39.147Z,100208.50
2023-01-07T20:06:11.407Z,100206.22
2023-01-07T20:08:39.006Z,100198.53
2023-01-07T20:11:06.042Z,100199.38
2023-01-07T20:13:34.361Z,100194.09
2023-01-07T20:16:09.535Z,100192.22
2023-01-07T20:18:41.511Z,100192.31
2023-01-07T20:21:09.442Z,100181.78
2023-01-07T20:23:37.491Z,100189.50
2023-01-07T20:26:06.655Z,100187.63
2023-01-07T20:28:33.635Z,100179.22
2023-01-07T20:31:00.421Z,100168.03
2023-01-07T20:33:26.930Z,100172.47
2023-01-07T20:36:05.445Z,100159.94
2023-01-07T20:38:33.548Z,100168.69
2023-01-07T20:41:00.245Z,100174.34
2023-01-07T20:43:26.985Z,100171.00
2023-01-07T20:45:58.579Z,100177.22
2023-01-07T20:48:25.291Z,100170.75
2023-01-07T20:50:52.075Z,100171.50
2023-01-07T20:53:19.019Z,100170.25
2023-01-07T20:55:45.631Z,100172.00
2023-01-07T20:58:12.498Z,100170.56
2023-01-07T21:00:40.922Z,100177.22
2023-01-07T21:03:08.356Z,100172.00
2023-01-07T21:05:37.625Z,100169.69
2023-01-07T21:08:04.258Z,100167.69
2023-01-07T21:10:30.879Z,100169.81
2023-01-07T21:12:57.698Z,100174.13
2023-01-07T21:15:24.588Z,100171.16
2023-01-07T21:17:53.838Z,100170.34
2023-01-07T21:20:23.551Z,100172.22
2023-01-07T21:22:50.106Z,100178.78
2023-01-07T21:25:16.613Z,100166.78
2023-01-07T21:27:43.447Z,100169.59
2023-01-07T21:30:16.325Z,100169.50
2023-01-07T21:32:43.114Z,100168.84
2023-01-07T21:35:10.946Z,100162.66
2023-01-07T21:37:38.090Z,100168.13
2023-01-07T21:40:06.187Z,100157.59
2023-01-07T21:42:34.653Z,100162.88
2023-01-07T21:45:01.238Z,100157.06
2023-01-07T21:47:27.853Z,100159.91
2023-01-07T21:49:54.547Z,100159.78
2023-01-07T21:52:21.045Z,100158.72
2023-01-07T21:54:47.603Z,100165.16
2023-01-07T21:57:14.257Z,100164.56
2023-01-07T21:59:40.880Z,100159.16
2023-01-07T22:02:07.546Z,100163.19
2023-01-07T22:04:34.972Z,100162.25
2023-01-07T22:07:01.425Z,100160.47
2023-01-07T22:09:27.880Z,100159.28
2023-01-07T22:11:54.857Z,100164.44
2023-01-07T22:14:23.027Z,100158.06
2023-01-07T22:16:49.585Z,100155.94
2023-01-07T22:19:16.268Z,100152.66
2023-01-07T22:21:42.844Z,100148.78
2023-01-07T22:24:09.478Z,100147.22
2023-01-07T22:26:36.421Z,100148.38
2023-01-07T22:29:06.963Z,100142.41
2023-01-07T22:31:38.627Z,100132.38
2023-01-07T22:34:06.244Z,100133.44
2023-01-07T22:36:35.946Z,100139.88
2023-01-07T22:39:05.271Z,100145.13
2023-01-07T22:41:33.244Z,100142.00
2023-01-07T22:44:03.273Z,100149.56
2023-01-07T22:46:31.063Z,100142.84
2023-01-07T22:48:58.227Z,100137.34
2023-01-07T22:51:30.832Z,100138.06
2023-01-07T22:53:59.635Z,100133.53
2023-01-07T22:56:26.415Z,100137.97
2023-01-07T22:58:53.051Z,100133.66
2023-01-07T23:01:23.129Z,100134.28
2023-01-07T23:03:49.855Z,100130.09
2023-01-07T23:06:16.561Z,100138.22
2023-01-07T23:08:44.403Z,100128.72
2023-01-07T23:11:11.393Z,100138.72
2023-01-07T23:13:38.251Z,100127.28
2023-01-07T23:16:06.724Z,100131.56
2023-01-07T23:18:33.603Z,100127.47
2023-01-07T23:21:00.125Z,100128.75
2023-01-07T23:23:26.780Z,100120.53
2023-01-07T23:25:53.258Z,100121.69
2023-01-07T23:28:20.467Z,100120.75
2023-01-07T23:30:48.473Z,100118.84
2023-01-07T23:33:14.970Z,100117.16
2023-01-07T23:35:41.475Z,100117.91
2023-01-07T23:38:08.027Z,100112.22
2023-01-07T23:40:34.602Z,100107.81
2023-01-07T23:43:01.097Z,100108.88
2023-01-07T23:45:27.870Z,100104.75
2023-01-07T23:47:54.349Z,100097.19
2023-01-07T23:50:20.901Z,100096.16
2023-01-07T23:52:47.364Z,100098.25
2023-01-07T23:55:13.979Z,100088.13
2023-01-07T23:57:40.614Z,100093.16
